Tuesday, November 21, 2017, 3:49 PM GMT
Back to Local

CYOW, Ottawa Int'L. Ont.

Location: , , Canada Lat: 45.317
Local Time: 3:49 PM GMT (15:49 GMT) Lon: -75.667
Time Zone: GMT Elev: 380 ft

Show me the last for .
Show Decoded

2017-11-21 15:00 METAR CYOW 211500Z 19011G17KT 15SM FEW170 SCT220 BKN250 03/M02 A2970 RMK
                 AC1CI3CI1 SLP063 =
2017-11-21 14:00 METAR CYOW 211400Z 18010KT 15SM FEW170 BKN220 03/M02 A2971 RMK AC2CI4 SLP068 =
2017-11-21 13:00 METAR CYOW 211300Z 13006KT 15SM FEW170 BKN220 M03/M04 A2972 RMK AC1CI5 SLP070 =
2017-11-21 12:00 METAR CYOW 211200Z 11005KT 15SM BKN220 M04/M05 A2973 RMK CI5 SLP076 =
2017-11-21 11:00 METAR CYOW 211100Z 10005KT 15SM BKN220 M04/M05 A2975 RMK CI6 SLP084 =
2017-11-21 10:00 METAR CYOW 211000Z 09005KT 15SM BKN230 M04/M06 A2978 RMK CI6 SLP093 =
2017-11-21 09:00 METAR CYOW 210900Z 07007KT 15SM FEW240 M05/M06 A2980 RMK CI2 SLP100 =
2017-11-21 08:00 METAR CYOW 210800Z 07008KT 15SM FEW240 M05/M06 A2983 RMK CI2 SLP109 =
2017-11-21 07:00 METAR CYOW 210700Z 07007KT 15SM FEW035 SCT240 M05/M06 A2985 RMK SC1CI2 SLP117 =
2017-11-21 06:00 METAR CYOW 210600Z 08008KT 15SM OVC034 M04/M05 A2986 RMK SC8 SLP119 =
2017-11-21 05:00 METAR CYOW 210500Z 08007KT 15SM OVC022 M04/M05 A2988 RMK SC8 SLP128 =
2017-11-21 04:00 METAR CYOW 210400Z 10006KT 15SM OVC027 M04/M06 A2991 RMK SC8 SLP137 =
2017-11-21 03:41 METAR CYOW 210341Z 13006KT 10SM -SN OVC025 M04/M06 A2992 RMK SC8 SLP140 =
2017-11-21 03:00 METAR CYOW 210300Z 14008KT 15SM OVC022 M04/M06 A2993 RMK SC8 SLP145 =
2017-11-21 02:00 METAR CYOW 210200Z 11005KT 15SM OVC026 M05/M07 A2994 RMK SC8 SLP146 =
2017-11-21 01:38 METAR CYOW 210138Z 14004KT 15SM OVC030 M05/M07 A2995 RMK SC8 SLP151 =
2017-11-21 01:00 METAR CYOW 210100Z 15005KT 15SM OVC042 M05/M07 A2995 RMK SC8 SLP152 =
2017-11-21 00:00 METAR CYOW 210000Z 15004KT 15SM BKN046 M06/M09 A2996 RMK SC7 SLP154 =
2017-11-20 23:00 METAR CYOW 202300Z 17003KT 15SM BKN050 M06/M10 A2995 RMK SC5 SLP152 =
2017-11-20 22:00 METAR CYOW 202200Z 24003KT 15SM SCT052 M06/M10 A2994 RMK SC4 SLP148 =
2017-11-20 21:00 METAR CYOW 202100Z 28005KT 15SM FEW027 FEW100 SCT250 M06/M11 A2992 RMK CU1AC2CI1
                 CU TR SLP142 =
2017-11-20 20:00 METAR CYOW 202000Z 28007KT 15SM FEW020 M05/M10 A2991 RMK CU2 SLP136 =
2017-11-20 19:00 METAR CYOW 201900Z 28010KT 15SM SCT020 M06/M10 A2990 RMK CU3 SLP133 =
2017-11-20 18:00 METAR CYOW 201800Z CCA 28011KT 15SM SCT020 M05/M10 A2990 RMK CU3 SLP133 =
2017-11-20 17:00 METAR CYOW 201700Z 31010KT 15SM SCT017 SCT040 M05/M08 A2990 RMK SC3SC1 SC TR
                 SLP133 =
2017-11-20 16:31 METAR CYOW 201631Z 29008KT 15SM SCT020 BKN040 M06/M09 A2990 RMK SC3SC3 SLP135 =
2017-11-20 16:00 METAR CYOW 201600Z 29008KT 8SM -SN BKN018 OVC042 M06/M09 A2991 RMK SC6SC2 SLP136
                 =

Support USWX by starting your Amazon purchase here.